createdAt,value
2023-05-20T00:00:27.113Z,100.00
2023-05-20T00:02:54.527Z,100.00
2023-05-20T00:05:21.542Z,100.00
2023-05-20T00:07:48.741Z,100.00
2023-05-20T00:10:16.001Z,100.00
2023-05-20T00:12:43.110Z,100.00
2023-05-20T00:15:12.368Z,100.00
2023-05-20T00:17:39.805Z,100.00
2023-05-20T00:20:08.334Z,100.00
2023-05-20T00:22:35.692Z,99.95
2023-05-20T00:25:03.042Z,100.00
2023-05-20T00:27:30.286Z,100.00
2023-05-20T00:29:57.970Z,100.00
2023-05-20T00:32:25.941Z,100.00
2023-05-20T00:34:59.793Z,100.00
2023-05-20T00:37:29.583Z,100.00
2023-05-20T00:39:58.379Z,100.00
2023-05-20T00:42:27.317Z,100.00
2023-05-20T00:44:56.017Z,100.00
2023-05-20T00:47:33.050Z,100.00
2023-05-20T00:50:01.422Z,100.00
2023-05-20T00:52:33.001Z,100.00
2023-05-20T00:55:00.635Z,100.00
2023-05-20T00:57:28.192Z,100.00
2023-05-20T00:59:56.065Z,100.00
2023-05-20T01:02:25.625Z,100.00
2023-05-20T01:04:55.467Z,100.00
2023-05-20T01:07:23.002Z,100.00
2023-05-20T01:09:52.907Z,100.00
2023-05-20T01:12:30.149Z,100.00
2023-05-20T01:15:16.110Z,100.00
2023-05-20T01:17:58.465Z,100.00
2023-05-20T01:20:26.725Z,100.00
2023-05-20T01:22:57.134Z,100.00
2023-05-20T01:25:25.388Z,100.00
2023-05-20T01:27:54.585Z,100.00
2023-05-20T01:30:28.470Z,100.00
2023-05-20T01:33:00.343Z,100.00
2023-05-20T01:35:33.172Z,100.00
2023-05-20T01:38:01.110Z,100.00
2023-05-20T01:40:29.429Z,100.00
2023-05-20T01:42:58.655Z,100.00
2023-05-20T01:45:26.858Z,100.00
2023-05-20T01:47:54.889Z,100.00
2023-05-20T01:50:22.576Z,100.00
2023-05-20T01:52:50.329Z,100.00
2023-05-20T01:55:17.695Z,100.00
2023-05-20T01:57:44.909Z,100.00
2023-05-20T02:00:12.845Z,100.00
2023-05-20T02:02:45.159Z,100.00
2023-05-20T02:05:13.590Z,100.00
2023-05-20T02:07:43.570Z,100.00
2023-05-20T02:10:11.768Z,100.00
2023-05-20T02:12:39.117Z,100.00
2023-05-20T02:15:07.675Z,100.00
2023-05-20T02:17:36.266Z,100.00
2023-05-20T02:20:06.591Z,100.00
2023-05-20T02:22:35.151Z,100.00
2023-05-20T02:25:04.071Z,100.00
2023-05-20T02:27:31.699Z,100.00
2023-05-20T02:30:01.126Z,100.00
2023-05-20T02:32:29.305Z,100.00
2023-05-20T02:34:56.930Z,100.00
2023-05-20T02:37:24.762Z,100.00
2023-05-20T02:39:52.536Z,100.00
2023-05-20T02:42:19.760Z,100.00
2023-05-20T02:44:47.104Z,100.00
2023-05-20T02:47:14.876Z,100.00
2023-05-20T02:49:42.342Z,100.00
2023-05-20T02:52:10.602Z,100.00
2023-05-20T02:54:38.981Z,100.00
2023-05-20T02:57:06.560Z,100.00
2023-05-20T02:59:33.851Z,100.00
2023-05-20T03:02:01.340Z,100.00
2023-05-20T03:04:29.458Z,99.63
2023-05-20T03:06:58.202Z,100.00
2023-05-20T03:09:25.734Z,99.83
2023-05-20T03:11:56.077Z,96.42
2023-05-20T03:14:24.129Z,90.99
2023-05-20T03:16:51.513Z,87.05
2023-05-20T03:19:19.741Z,85.25
2023-05-20T03:21:47.040Z,82.72
2023-05-20T03:24:15.010Z,79.78
2023-05-20T03:26:46.734Z,76.95
2023-05-20T03:29:14.122Z,74.45
2023-05-20T03:31:41.986Z,73.76
2023-05-20T03:34:09.055Z,73.86
2023-05-20T03:36:36.760Z,73.50
2023-05-20T03:39:05.005Z,73.23
2023-05-20T03:41:34.342Z,74.36
2023-05-20T03:44:05.366Z,74.74
2023-05-20T03:46:34.765Z,74.48
2023-05-20T03:49:03.284Z,74.22
2023-05-20T03:51:31.846Z,74.27
2023-05-20T03:54:05.640Z,74.51
2023-05-20T03:56:33.165Z,74.38
2023-05-20T03:59:01.020Z,74.58
2023-05-20T04:01:28.653Z,74.00
2023-05-20T04:03:56.618Z,74.83
2023-05-20T04:06:24.498Z,73.41
2023-05-20T04:08:53.184Z,71.91
2023-05-20T04:11:21.913Z,69.96
2023-05-20T04:13:49.204Z,70.56
2023-05-20T04:16:17.494Z,68.97
2023-05-20T04:18:46.525Z,69.50
2023-05-20T04:21:14.404Z,66.88
2023-05-20T04:23:41.925Z,66.74
2023-05-20T04:26:09.431Z,65.84
2023-05-20T04:28:38.193Z,65.81
2023-05-20T04:31:06.426Z,61.94
2023-05-20T04:33:39.113Z,62.63
2023-05-20T04:36:10.434Z,61.56
2023-05-20T04:38:38.265Z,60.00
2023-05-20T04:41:07.394Z,59.79
2023-05-20T04:43:35.029Z,58.55
2023-05-20T04:46:06.457Z,58.27
2023-05-20T04:48:35.350Z,58.59
2023-05-20T04:51:03.693Z,57.58
2023-05-20T04:53:34.243Z,57.58
2023-05-20T04:56:02.127Z,57.95
2023-05-20T04:58:32.077Z,56.58
2023-05-20T05:01:00.067Z,55.78
2023-05-20T05:03:29.102Z,56.51
2023-05-20T05:06:01.530Z,55.62
2023-05-20T05:08:29.137Z,55.42
2023-05-20T05:10:56.418Z,55.28
2023-05-20T05:13:23.852Z,56.26
2023-05-20T05:16:01.958Z,56.08
2023-05-20T05:18:31.292Z,56.93
2023-05-20T05:21:06.779Z,56.23
2023-05-20T05:23:36.307Z,56.74
2023-05-20T05:26:03.733Z,57.08
2023-05-20T05:28:31.403Z,57.94
2023-05-20T05:30:59.537Z,57.65
2023-05-20T05:33:27.246Z,57.90
2023-05-20T05:35:59.479Z,57.83
2023-05-20T05:38:27.600Z,57.87
2023-05-20T05:40:55.588Z,58.34
2023-05-20T05:43:23.448Z,58.19
2023-05-20T05:45:51.705Z,58.03
2023-05-20T05:48:19.173Z,58.57
2023-05-20T05:50:47.360Z,58.76
2023-05-20T05:53:17.062Z,58.13
2023-05-20T05:55:48.106Z,58.22
2023-05-20T05:58:16.657Z,57.70
2023-05-20T06:00:43.983Z,57.59
2023-05-20T06:03:11.893Z,56.37
2023-05-20T06:05:40.244Z,56.23
2023-05-20T06:08:08.504Z,55.01
2023-05-20T06:10:37.386Z,55.26
2023-05-20T06:13:05.249Z,53.50
2023-05-20T06:15:33.783Z,52.20
2023-05-20T06:18:03.266Z,52.47
2023-05-20T06:20:32.214Z,52.70
2023-05-20T06:23:01.260Z,52.25
2023-05-20T06:25:37.792Z,51.19
2023-05-20T06:28:05.417Z,50.85
2023-05-20T06:30:33.444Z,50.99
2023-05-20T06:33:01.766Z,50.28
2023-05-20T06:35:29.467Z,48.88
2023-05-20T06:37:57.158Z,48.53
2023-05-20T06:40:24.746Z,46.49
2023-05-20T06:42:52.477Z,44.46
2023-05-20T06:45:28.208Z,44.99
2023-05-20T06:47:57.738Z,43.51
2023-05-20T06:50:28.485Z,43.31
2023-05-20T06:52:56.409Z,40.98
2023-05-20T06:55:24.094Z,38.56
2023-05-20T06:57:51.863Z,38.57
2023-05-20T07:00:20.412Z,39.45
2023-05-20T07:02:47.890Z,38.10
2023-05-20T07:05:15.743Z,38.00
2023-05-20T07:07:43.140Z,37.61
2023-05-20T07:10:10.716Z,37.56
2023-05-20T07:12:38.181Z,36.85
2023-05-20T07:15:06.426Z,36.72
2023-05-20T07:17:34.994Z,35.19
2023-05-20T07:20:03.088Z,35.18
2023-05-20T07:34:02.770Z,32.62
2023-05-20T07:36:30.710Z,33.87
2023-05-20T07:39:04.368Z,33.90
2023-05-20T07:41:35.903Z,33.32
2023-05-20T07:44:05.350Z,33.02
2023-05-20T07:46:35.021Z,33.41
2023-05-20T07:49:03.765Z,34.13
2023-05-20T07:51:31.997Z,33.74
2023-05-20T07:53:59.554Z,32.42
2023-05-20T07:56:27.544Z,31.03
2023-05-20T07:58:58.441Z,31.94
2023-05-20T08:01:29.229Z,31.79
2023-05-20T08:03:56.805Z,31.16
2023-05-20T08:06:27.950Z,30.87
2023-05-20T08:08:57.025Z,30.03
2023-05-20T08:11:29.780Z,30.27
2023-05-20T08:13:57.696Z,30.31
2023-05-20T08:16:27.446Z,30.09
2023-05-20T08:18:55.300Z,30.19
2023-05-20T08:21:23.054Z,30.36
2023-05-20T08:23:51.157Z,29.15
2023-05-20T08:26:18.779Z,29.16
2023-05-20T08:28:47.080Z,29.54
2023-05-20T08:31:18.315Z,28.92
2023-05-20T08:33:46.041Z,28.13
2023-05-20T08:36:13.301Z,28.23
2023-05-20T08:38:40.420Z,28.97
2023-05-20T08:41:07.995Z,28.16
2023-05-20T08:43:38.223Z,26.66
2023-05-20T08:46:07.211Z,26.90
2023-05-20T08:48:36.485Z,27.08
2023-05-20T08:51:05.169Z,27.17
2023-05-20T08:53:32.614Z,26.58
2023-05-20T08:56:03.710Z,27.57
2023-05-20T08:58:33.049Z,27.44
2023-05-20T09:01:00.710Z,27.33
2023-05-20T09:03:29.093Z,27.78
2023-05-20T09:06:06.220Z,27.46
2023-05-20T09:08:34.636Z,27.44
2023-05-20T09:11:02.176Z,27.12
2023-05-20T09:13:33.133Z,26.54
2023-05-20T09:16:04.721Z,25.19
2023-05-20T09:18:32.553Z,25.41
2023-05-20T09:21:07.424Z,26.00
2023-05-20T09:23:38.601Z,24.73
2023-05-20T09:26:06.739Z,25.76
2023-05-20T09:28:36.717Z,25.79
2023-05-20T09:31:07.087Z,24.75
2023-05-20T09:33:37.634Z,25.13
2023-05-20T09:36:08.303Z,24.88
2023-05-20T09:38:40.068Z,26.34
2023-05-20T09:41:16.092Z,25.17
2023-05-20T09:43:45.870Z,24.67
2023-05-20T09:46:14.519Z,24.52
2023-05-20T09:48:41.983Z,25.19
2023-05-20T09:51:10.344Z,25.01
2023-05-20T09:53:38.007Z,24.67
2023-05-20T09:56:06.201Z,23.95
2023-05-20T09:58:36.385Z,23.83
2023-05-20T10:01:04.238Z,23.62
2023-05-20T10:03:33.694Z,23.43
2023-05-20T10:06:10.598Z,22.90
2023-05-20T10:08:47.264Z,23.11
2023-05-20T10:11:40.778Z,22.36
2023-05-20T10:14:49.748Z,21.26
2023-05-20T10:17:29.081Z,22.08
2023-05-20T10:20:03.956Z,22.20
2023-05-20T10:22:33.664Z,22.13
2023-05-20T10:25:09.184Z,22.17
2023-05-20T10:27:49.160Z,21.77
2023-05-20T10:30:18.307Z,21.84
2023-05-20T10:32:57.810Z,21.30
2023-05-20T10:35:26.795Z,21.79
2023-05-20T10:37:55.437Z,21.93
2023-05-20T10:40:23.587Z,21.77
2023-05-20T10:42:50.983Z,22.52
2023-05-20T10:45:29.076Z,22.47
2023-05-20T10:47:57.960Z,22.07
2023-05-20T10:50:36.554Z,22.08
2023-05-20T10:53:18.465Z,22.50
2023-05-20T10:55:57.979Z,21.94
2023-05-20T10:58:25.907Z,22.03
2023-05-20T11:00:56.432Z,21.10
2023-05-20T11:03:25.619Z,20.10
2023-05-20T11:05:53.104Z,20.41
2023-05-20T11:08:29.067Z,20.54
2023-05-20T11:10:58.523Z,20.72
2023-05-20T11:13:27.381Z,21.29
2023-05-20T11:15:56.177Z,21.58
2023-05-20T11:18:23.991Z,21.46
2023-05-20T11:20:51.528Z,21.07
2023-05-20T11:23:19.663Z,20.73
2023-05-20T11:25:47.607Z,21.22
2023-05-20T11:28:18.012Z,20.45
2023-05-20T11:30:46.006Z,20.17
2023-05-20T11:33:14.606Z,20.65
2023-05-20T11:35:46.376Z,20.74
2023-05-20T11:38:14.157Z,20.54
2023-05-20T11:40:53.068Z,20.71
2023-05-20T11:43:21.727Z,20.68
2023-05-20T11:45:54.734Z,20.81
2023-05-20T11:48:22.326Z,20.94
2023-05-20T11:50:49.894Z,20.99
2023-05-20T11:53:19.722Z,21.38
2023-05-20T11:55:53.300Z,21.08
2023-05-20T11:58:31.319Z,21.07
2023-05-20T12:01:09.580Z,21.60
2023-05-20T12:03:42.787Z,22.07
2023-05-20T12:06:13.752Z,22.17
2023-05-20T12:08:41.630Z,22.64
2023-05-20T12:11:09.209Z,22.70
2023-05-20T12:13:36.975Z,22.12
2023-05-20T12:16:06.201Z,22.01
2023-05-20T12:18:34.198Z,22.27
2023-05-20T12:21:02.030Z,22.28
2023-05-20T12:23:31.299Z,22.03
2023-05-20T12:25:58.477Z,21.90
2023-05-20T12:28:26.121Z,21.88
2023-05-20T12:30:53.372Z,20.96
2023-05-20T12:33:21.081Z,20.95
2023-05-20T12:35:48.931Z,21.64
2023-05-20T12:38:16.626Z,20.93
2023-05-20T12:40:44.573Z,21.09
2023-05-20T12:43:11.816Z,21.43
2023-05-20T12:45:39.701Z,20.26
2023-05-20T12:48:10.180Z,20.72
2023-05-20T12:50:37.861Z,20.62
2023-05-20T12:53:05.752Z,20.10
2023-05-20T12:55:33.324Z,21.27
2023-05-20T12:58:00.852Z,21.09
2023-05-20T13:00:28.622Z,21.23
2023-05-20T13:02:56.157Z,21.71
2023-05-20T13:05:23.496Z,21.35
2023-05-20T13:07:51.081Z,22.25
2023-05-20T13:10:20.026Z,21.99
2023-05-20T13:12:47.997Z,21.99
2023-05-20T13:15:15.937Z,22.18
2023-05-20T13:17:43.561Z,21.89
2023-05-20T13:20:12.180Z,22.36
2023-05-20T13:22:39.814Z,22.70
2023-05-20T13:25:08.508Z,23.39
2023-05-20T13:27:40.325Z,23.18
2023-05-20T13:30:08.797Z,23.12
2023-05-20T13:32:36.794Z,23.19
2023-05-20T13:35:04.743Z,23.54
2023-05-20T13:37:32.089Z,23.75
2023-05-20T13:39:59.672Z,23.92
2023-05-20T13:42:27.549Z,24.02
2023-05-20T13:44:54.903Z,24.33
2023-05-20T13:47:25.174Z,24.13
2023-05-20T13:49:53.165Z,24.78
2023-05-20T13:52:21.253Z,25.12
2023-05-20T13:54:49.022Z,25.28
2023-05-20T13:57:18.004Z,25.29
2023-05-20T13:59:45.554Z,26.16
2023-05-20T14:02:13.041Z,26.00
2023-05-20T14:04:41.500Z,26.53
2023-05-20T14:07:09.953Z,26.69
2023-05-20T14:09:38.248Z,26.75
2023-05-20T14:12:06.589Z,27.08
2023-05-20T14:14:34.027Z,27.26
2023-05-20T14:17:01.328Z,27.68
2023-05-20T14:19:29.369Z,27.34
2023-05-20T14:21:56.785Z,27.18
2023-05-20T14:24:24.276Z,27.25
2023-05-20T14:26:51.793Z,27.84
2023-05-20T14:29:19.424Z,27.91
2023-05-20T14:31:47.104Z,28.08
2023-05-20T14:34:14.422Z,27.88
2023-05-20T14:36:41.959Z,28.22
2023-05-20T14:39:10.161Z,28.02
2023-05-20T14:41:37.642Z,27.96
2023-05-20T14:44:05.240Z,28.18
2023-05-20T14:46:33.043Z,28.48
2023-05-20T14:49:00.663Z,28.39
2023-05-20T14:51:27.870Z,28.77
2023-05-20T14:53:55.040Z,29.29
2023-05-20T14:56:23.593Z,28.63
2023-05-20T14:58:51.214Z,29.33
2023-05-20T15:01:18.650Z,29.91
2023-05-20T15:03:46.483Z,29.93
2023-05-20T15:06:14.155Z,29.68
2023-05-20T15:08:42.231Z,29.96
2023-05-20T15:11:09.830Z,30.61
2023-05-20T15:13:40.206Z,30.55
2023-05-20T15:16:08.331Z,30.54
2023-05-20T15:18:35.856Z,30.80
2023-05-20T15:21:03.512Z,31.19
2023-05-20T15:23:31.171Z,31.27
2023-05-20T15:25:58.819Z,30.68
2023-05-20T15:28:26.647Z,31.18
2023-05-20T15:30:57.071Z,31.32
2023-05-20T15:33:24.767Z,31.88
2023-05-20T15:35:52.762Z,31.62
2023-05-20T15:38:20.202Z,31.97
2023-05-20T15:40:50.595Z,31.78
2023-05-20T15:43:18.875Z,31.98
2023-05-20T15:45:50.080Z,32.83
2023-05-20T15:48:17.857Z,32.42
2023-05-20T15:50:45.348Z,32.11
2023-05-20T15:53:16.228Z,32.51
2023-05-20T15:55:44.872Z,32.26
2023-05-20T15:58:12.508Z,32.65
2023-05-20T16:00:40.226Z,32.92
2023-05-20T16:03:08.702Z,33.05
2023-05-20T16:05:36.806Z,33.38
2023-05-20T16:08:04.408Z,33.03
2023-05-20T16:10:35.196Z,33.23
2023-05-20T16:13:03.341Z,33.07
2023-05-20T16:15:36.172Z,34.04
2023-05-20T16:18:04.224Z,33.76
2023-05-20T16:20:31.903Z,34.28
2023-05-20T16:22:59.565Z,34.18
2023-05-20T16:25:26.894Z,33.99
2023-05-20T16:27:54.267Z,34.10
2023-05-20T16:30:21.884Z,34.17
2023-05-20T16:32:49.641Z,34.37
2023-05-20T16:35:17.168Z,34.69
2023-05-20T16:37:44.942Z,34.83
2023-05-20T16:40:13.071Z,35.06
2023-05-20T16:42:40.684Z,35.51
2023-05-20T16:45:08.652Z,35.87
2023-05-20T16:47:37.125Z,36.34
2023-05-20T16:50:04.990Z,36.06
2023-05-20T16:52:35.578Z,35.69
2023-05-20T16:55:05.033Z,35.05
2023-05-20T16:57:32.959Z,35.02
2023-05-20T17:00:00.711Z,35.20
2023-05-20T17:02:28.157Z,35.37
2023-05-20T17:04:55.744Z,35.50
2023-05-20T17:07:23.226Z,35.75
2023-05-20T17:09:50.646Z,35.82
2023-05-20T17:12:20.132Z,36.05
2023-05-20T17:14:47.574Z,36.25
2023-05-20T17:17:15.235Z,36.49
2023-05-20T17:19:42.897Z,36.95
2023-05-20T17:22:10.428Z,37.11
2023-05-20T17:24:37.740Z,37.43
2023-05-20T17:27:06.256Z,38.00
2023-05-20T17:29:33.874Z,37.68
2023-05-20T17:32:01.598Z,38.01
2023-05-20T17:34:30.086Z,38.50
2023-05-20T17:36:57.806Z,39.12
2023-05-20T17:39:25.576Z,39.08
2023-05-20T17:41:53.013Z,38.99
2023-05-20T17:44:20.527Z,39.66
2023-05-20T17:46:48.913Z,39.76
2023-05-20T17:49:17.046Z,40.42
2023-05-20T17:51:44.506Z,40.93
2023-05-20T17:54:12.112Z,40.94
2023-05-20T17:56:39.645Z,41.31
2023-05-20T17:59:07.124Z,41.29
2023-05-20T18:01:36.404Z,41.95
2023-05-20T18:04:06.388Z,42.02
2023-05-20T18:06:36.409Z,42.08
2023-05-20T18:09:05.150Z,42.52
2023-05-20T18:11:34.052Z,42.79
2023-05-20T18:14:02.861Z,43.25
2023-05-20T18:16:30.974Z,43.73
2023-05-20T18:18:58.713Z,43.50
2023-05-20T18:21:26.653Z,43.99
2023-05-20T18:23:54.311Z,44.12
2023-05-20T18:26:21.873Z,44.79
2023-05-20T18:28:50.235Z,45.23
2023-05-20T18:31:17.680Z,45.04
2023-05-20T18:33:45.088Z,45.99
2023-05-20T18:36:12.723Z,46.20
2023-05-20T18:38:41.751Z,46.68
2023-05-20T18:41:10.438Z,47.35
2023-05-20T18:43:38.099Z,48.12
2023-05-20T18:46:06.851Z,48.43
2023-05-20T18:48:34.481Z,48.94
2023-05-20T18:51:01.846Z,49.38
2023-05-20T18:53:29.279Z,49.40
2023-05-20T18:56:01.849Z,50.11
2023-05-20T18:58:30.372Z,51.10
2023-05-20T19:00:57.733Z,51.07
2023-05-20T19:03:26.701Z,52.44
2023-05-20T19:05:54.108Z,52.70
2023-05-20T19:08:23.258Z,53.30
2023-05-20T19:10:51.250Z,54.28
2023-05-20T19:13:21.828Z,53.95
2023-05-20T19:15:49.456Z,55.43
2023-05-20T19:18:17.031Z,54.17
2023-05-20T19:20:44.361Z,53.99
2023-05-20T19:23:12.066Z,54.29
2023-05-20T19:25:39.789Z,54.98
2023-05-20T19:28:07.034Z,55.55
2023-05-20T19:30:35.105Z,54.95
2023-05-20T19:33:05.499Z,55.24
2023-05-20T19:35:34.997Z,55.56
2023-05-20T19:38:05.131Z,57.60
2023-05-20T19:40:33.652Z,56.99
2023-05-20T19:43:04.550Z,57.22
2023-05-20T19:45:32.402Z,57.68
2023-05-20T19:47:59.936Z,57.87
2023-05-20T19:50:28.041Z,59.27
2023-05-20T19:52:55.435Z,58.71
2023-05-20T19:55:23.070Z,59.13
2023-05-20T19:57:53.985Z,59.84
2023-05-20T20:00:21.994Z,61.10
2023-05-20T20:02:50.558Z,60.39
2023-05-20T20:05:18.630Z,60.18
2023-05-20T20:07:48.388Z,60.45
2023-05-20T20:10:16.045Z,60.83
2023-05-20T20:12:43.631Z,62.29
2023-05-20T20:15:11.598Z,61.85
2023-05-20T20:17:46.000Z,62.52
2023-05-20T20:20:14.501Z,63.16
2023-05-20T20:22:42.811Z,62.89
2023-05-20T20:25:14.130Z,64.11
2023-05-20T20:27:44.771Z,64.57
2023-05-20T20:30:14.172Z,65.74
2023-05-20T20:32:42.121Z,64.35
2023-05-20T20:35:11.389Z,65.56
2023-05-20T20:37:39.573Z,65.73
2023-05-20T20:40:13.725Z,66.16
2023-05-20T20:42:45.410Z,66.43
2023-05-20T20:45:12.847Z,65.76
2023-05-20T20:47:41.471Z,65.84
2023-05-20T20:50:09.686Z,65.35
2023-05-20T20:52:38.785Z,65.14
2023-05-20T20:55:07.357Z,65.14
2023-05-20T20:57:35.528Z,65.76
2023-05-20T21:00:14.381Z,65.81
2023-05-20T21:02:42.226Z,65.56
2023-05-20T21:05:09.907Z,65.63
2023-05-20T21:07:42.878Z,64.90
2023-05-20T21:10:10.710Z,65.66
2023-05-20T21:12:38.202Z,65.80
2023-05-20T21:15:06.384Z,67.16
2023-05-20T21:17:33.744Z,67.81
2023-05-20T21:20:01.234Z,67.51
2023-05-20T21:22:28.706Z,66.98
2023-05-20T21:24:56.162Z,67.26
2023-05-20T21:27:23.708Z,67.37
2023-05-20T21:29:51.458Z,66.78
2023-05-20T21:32:19.112Z,66.64
2023-05-20T21:34:47.045Z,66.29
2023-05-20T21:37:14.383Z,65.77
2023-05-20T21:39:42.464Z,66.20
2023-05-20T21:42:10.057Z,66.83
2023-05-20T21:44:37.726Z,66.90
2023-05-20T21:47:05.051Z,66.97
2023-05-20T21:49:33.253Z,66.72
2023-05-20T21:52:00.623Z,67.14
2023-05-20T21:54:27.617Z,67.14
2023-05-20T21:56:54.834Z,67.29
2023-05-20T21:59:22.422Z,67.18
2023-05-20T22:01:51.169Z,67.56
2023-05-20T22:04:19.880Z,67.37
2023-05-20T22:06:47.409Z,67.17
2023-05-20T22:09:14.979Z,67.54
2023-05-20T22:11:45.759Z,67.16
2023-05-20T22:14:16.332Z,66.52
2023-05-20T22:16:48.766Z,65.94
2023-05-20T22:19:16.928Z,65.53
2023-05-20T22:24:15.274Z,65.12
2023-05-20T22:26:42.735Z,64.79
2023-05-20T22:29:09.959Z,64.71
2023-05-20T22:31:38.159Z,64.50
2023-05-20T22:34:05.740Z,65.03
2023-05-20T22:36:36.668Z,65.41
2023-05-20T22:39:04.951Z,65.42
2023-05-20T22:41:32.448Z,65.32
2023-05-20T22:43:59.784Z,65.46
2023-05-20T22:46:27.147Z,65.60
2023-05-20T22:48:55.632Z,65.22
2023-05-20T22:51:24.750Z,65.19
2023-05-20T22:53:52.304Z,65.96
2023-05-20T22:56:20.173Z,65.94
2023-05-20T22:58:47.568Z,66.31
2023-05-20T23:01:16.983Z,66.03
2023-05-20T23:03:51.830Z,66.07
2023-05-20T23:06:19.610Z,66.12
2023-05-20T23:08:47.184Z,65.98
2023-05-20T23:11:14.472Z,66.22
2023-05-20T23:13:42.031Z,66.07
2023-05-20T23:16:09.673Z,66.28
2023-05-20T23:18:37.259Z,66.67
2023-05-20T23:21:04.732Z,66.54
2023-05-20T23:23:32.340Z,66.70
2023-05-20T23:26:00.361Z,67.37
2023-05-20T23:28:28.129Z,68.05
2023-05-20T23:30:55.333Z,67.06
2023-05-20T23:33:25.761Z,67.04
2023-05-20T23:35:53.504Z,67.55
2023-05-20T23:38:21.351Z,67.32
2023-05-20T23:40:49.735Z,67.92
2023-05-20T23:43:17.305Z,67.76
2023-05-20T23:45:44.498Z,68.16
2023-05-20T23:48:13.775Z,68.23
2023-05-20T23:50:41.198Z,67.15
2023-05-20T23:53:08.511Z,67.92
2023-05-20T23:55:36.149Z,68.40
2023-05-20T23:58:04.522Z,69.05
